createdAt,value
2023-04-02T00:00:18.512Z,7.40
2023-04-02T00:02:58.837Z,7.40
2023-04-02T00:05:51.290Z,7.26
2023-04-02T00:08:26.097Z,7.25
2023-04-02T00:10:57.978Z,7.24
2023-04-02T00:13:33.989Z,7.21
2023-04-02T00:16:08.364Z,7.04
2023-04-02T00:18:44.233Z,7.03
2023-04-02T00:21:21.191Z,6.96
2023-04-02T00:23:49.197Z,7.07
2023-04-02T00:26:25.348Z,7.00
2023-04-02T00:28:53.711Z,6.91
2023-04-02T00:31:23.645Z,6.86
2023-04-02T00:33:53.171Z,6.73
2023-04-02T00:36:26.558Z,6.74
2023-04-02T00:38:59.520Z,6.74
2023-04-02T00:41:31.968Z,6.82
2023-04-02T00:44:01.451Z,6.87
2023-04-02T00:46:46.662Z,6.86
2023-04-02T00:49:35.112Z,6.87
2023-04-02T00:52:08.226Z,6.80
2023-04-02T00:57:33.476Z,6.86
2023-04-02T01:00:19.767Z,6.72
2023-04-02T01:03:28.975Z,6.57
2023-04-02T01:06:03.091Z,6.60
2023-04-02T01:08:56.446Z,6.58
2023-04-02T01:11:47.539Z,6.47
2023-04-02T01:14:34.817Z,6.51
2023-04-02T01:17:20.521Z,6.49
2023-04-02T01:20:34.192Z,6.50
2023-04-02T01:23:09.148Z,6.36
2023-04-02T01:25:45.678Z,6.30
2023-04-02T01:28:20.456Z,6.18
2023-04-02T01:30:56.002Z,6.23
2023-04-02T01:33:30.737Z,6.30
2023-04-02T01:36:11.439Z,6.10
2023-04-02T01:38:51.683Z,6.21
2023-04-02T01:41:32.558Z,6.22
2023-04-02T01:44:07.761Z,6.20
2023-04-02T01:46:42.264Z,6.20
2023-04-02T01:49:15.472Z,6.08
2023-04-02T01:51:50.767Z,5.97
2023-04-02T01:54:22.197Z,6.09
2023-04-02T01:56:51.755Z,6.04
2023-04-02T01:59:22.570Z,5.93
2023-04-02T02:02:03.075Z,5.77
2023-04-02T02:04:34.410Z,5.76
2023-04-02T02:07:05.039Z,5.70
2023-04-02T02:09:35.946Z,5.81
2023-04-02T02:12:05.690Z,5.84
2023-04-02T02:14:33.595Z,5.78
2023-04-02T02:17:15.766Z,5.86
2023-04-02T02:19:47.831Z,5.86
2023-04-02T02:22:27.777Z,5.86
2023-04-02T02:24:57.847Z,5.77
2023-04-02T02:27:50.538Z,5.87
2023-04-02T02:30:27.013Z,5.69
2023-04-02T02:33:05.271Z,5.62
2023-04-02T02:35:43.160Z,5.61
2023-04-02T02:38:41.576Z,5.59
2023-04-02T02:41:24.516Z,5.53
2023-04-02T02:44:03.141Z,5.59
2023-04-02T02:46:34.174Z,5.58
2023-04-02T02:49:07.161Z,5.61
2023-04-02T02:51:46.215Z,5.45
2023-04-02T02:54:20.914Z,5.39
2023-04-02T02:56:55.744Z,5.25
2023-04-02T02:59:24.813Z,5.32
2023-04-02T03:01:53.674Z,5.23
2023-04-02T03:04:25.085Z,5.19
2023-04-02T03:06:58.567Z,5.01
2023-04-02T03:09:41.872Z,5.05
2023-04-02T03:12:32.666Z,5.07
2023-04-02T03:15:12.378Z,5.00
2023-04-02T03:17:51.443Z,4.99
2023-04-02T03:20:31.159Z,4.90
2023-04-02T03:23:13.136Z,4.90
2023-04-02T03:25:56.205Z,4.85
2023-04-02T03:28:32.811Z,4.82
2023-04-02T03:31:06.879Z,4.82
2023-04-02T03:33:42.207Z,4.97
2023-04-02T03:36:22.798Z,5.02
2023-04-02T03:39:01.070Z,5.08
2023-04-02T03:41:39.273Z,5.02
2023-04-02T03:44:24.012Z,4.96
2023-04-02T03:46:58.039Z,4.87
2023-04-02T03:49:36.691Z,4.89
2023-04-02T03:52:12.260Z,4.99
2023-04-02T03:54:54.254Z,5.12
2023-04-02T03:57:33.886Z,5.11
2023-04-02T04:00:16.434Z,4.96
2023-04-02T04:02:50.806Z,4.86
2023-04-02T04:05:26.126Z,4.87
2023-04-02T04:08:03.074Z,4.68
2023-04-02T04:10:33.236Z,4.75
2023-04-02T04:13:09.758Z,4.68
2023-04-02T04:15:48.182Z,4.77
2023-04-02T04:18:29.818Z,4.78
2023-04-02T04:21:03.525Z,4.78
2023-04-02T04:23:41.239Z,4.74
2023-04-02T04:26:24.747Z,4.76
2023-04-02T04:29:13.998Z,4.60
2023-04-02T04:31:47.190Z,4.49
2023-04-02T04:34:25.051Z,4.43
2023-04-02T04:37:01.683Z,4.50
2023-04-02T04:39:47.159Z,4.60
2023-04-02T04:42:23.959Z,4.54
2023-04-02T04:45:00.426Z,4.65
2023-04-02T04:47:35.996Z,4.77
2023-04-02T04:50:11.474Z,4.90
2023-04-02T04:52:43.518Z,4.84
2023-04-02T04:55:28.705Z,4.88
2023-04-02T04:58:08.535Z,4.71
2023-04-02T05:00:54.134Z,4.72
2023-04-02T05:03:33.512Z,4.67
2023-04-02T05:06:11.818Z,4.55
2023-04-02T05:08:49.120Z,4.61
2023-04-02T05:11:30.458Z,4.69
2023-04-02T05:14:05.349Z,4.80
2023-04-02T05:16:42.217Z,4.71
2023-04-02T05:19:18.711Z,4.79
2023-04-02T05:21:55.664Z,4.69
2023-04-02T05:24:44.086Z,4.68
2023-04-02T05:27:29.052Z,4.77
2023-04-02T05:30:09.641Z,4.76
2023-04-02T05:32:45.986Z,4.63
2023-04-02T05:35:19.315Z,4.64
2023-04-02T05:37:48.990Z,4.82
2023-04-02T05:40:27.722Z,4.56
2023-04-02T05:43:01.438Z,4.55
2023-04-02T05:45:35.538Z,4.58
2023-04-02T05:48:17.205Z,4.56
2023-04-02T05:50:51.539Z,4.53
2023-04-02T05:53:33.479Z,4.63
2023-04-02T05:56:06.387Z,4.62
2023-04-02T05:58:45.740Z,4.66
2023-04-02T06:01:39.137Z,4.67
2023-04-02T06:04:28.752Z,4.69
2023-04-02T06:07:08.849Z,4.55
2023-04-02T06:09:46.714Z,4.57
2023-04-02T06:12:28.576Z,4.33
2023-04-02T06:14:58.785Z,4.36
2023-04-02T06:17:33.363Z,4.45
2023-04-02T06:20:06.737Z,4.33
2023-04-02T06:22:39.200Z,4.38
2023-04-02T06:25:20.527Z,4.40
2023-04-02T06:27:53.909Z,4.63
2023-04-02T06:30:30.802Z,4.61
2023-04-02T06:32:59.248Z,4.55
2023-04-02T06:35:28.527Z,4.46
2023-04-02T06:38:07.053Z,4.49
2023-04-02T06:40:44.647Z,4.49
2023-04-02T06:43:33.514Z,4.48
2023-04-02T06:46:34.212Z,4.63
2023-04-02T06:49:23.346Z,4.65
2023-04-02T06:51:58.487Z,4.67
2023-04-02T06:54:27.189Z,4.65
2023-04-02T06:57:00.118Z,4.67
2023-04-02T06:59:34.722Z,4.81
2023-04-02T07:02:26.053Z,4.88
2023-04-02T07:05:01.443Z,4.98
2023-04-02T07:07:30.475Z,4.95
2023-04-02T07:09:59.434Z,4.77
2023-04-02T07:12:27.667Z,4.99
2023-04-02T07:14:56.362Z,4.98
2023-04-02T07:17:26.432Z,5.06
2023-04-02T07:19:54.312Z,4.94
2023-04-02T07:22:22.777Z,4.93
2023-04-02T07:24:55.467Z,5.16
2023-04-02T07:27:23.274Z,5.14
2023-04-02T07:29:51.026Z,4.96
2023-04-02T07:32:19.861Z,5.05
2023-04-02T07:34:48.986Z,5.04
2023-04-02T07:37:17.185Z,5.23
2023-04-02T07:39:45.242Z,5.25
2023-04-02T07:42:13.053Z,5.15
2023-04-02T07:44:41.024Z,5.06
2023-04-02T07:47:10.728Z,5.20
2023-04-02T07:49:38.489Z,5.28
2023-04-02T07:52:07.673Z,5.51
2023-04-02T07:54:35.895Z,5.68
2023-04-02T07:57:04.017Z,5.93
2023-04-02T07:59:31.780Z,5.94
2023-04-02T08:01:59.691Z,5.94
2023-04-02T08:04:27.591Z,5.75
2023-04-02T08:06:55.308Z,5.86
2023-04-02T08:09:24.526Z,5.94
2023-04-02T08:11:52.575Z,5.95
2023-04-02T08:14:20.428Z,6.01
2023-04-02T08:16:51.917Z,6.01
2023-04-02T08:19:20.603Z,6.08
2023-04-02T08:21:51.538Z,5.81
2023-04-02T08:24:20.323Z,5.84
2023-04-02T08:26:51.392Z,5.90
2023-04-02T08:29:19.459Z,5.99
2023-04-02T08:31:47.878Z,5.90
2023-04-02T08:34:15.821Z,6.08
2023-04-02T08:36:45.432Z,5.95
2023-04-02T08:39:13.817Z,6.08
2023-04-02T08:41:47.317Z,5.95
2023-04-02T08:44:40.998Z,5.92
2023-04-02T08:47:10.941Z,5.84
2023-04-02T08:49:58.336Z,5.87
2023-04-02T08:52:31.334Z,5.90
2023-04-02T08:55:01.477Z,5.86
2023-04-02T08:57:41.702Z,6.06
2023-04-02T09:00:32.530Z,5.95
2023-04-02T09:03:08.708Z,6.06
2023-04-02T09:05:42.857Z,6.14
2023-04-02T09:08:19.823Z,5.94
2023-04-02T09:10:59.185Z,6.02
2023-04-02T09:13:33.189Z,6.10
2023-04-02T09:16:11.238Z,6.15
2023-04-02T09:18:40.590Z,6.09
2023-04-02T09:21:33.136Z,6.00
2023-04-02T09:24:02.823Z,5.67
2023-04-02T09:26:33.900Z,5.52
2023-04-02T09:29:25.231Z,5.53
2023-04-02T09:32:07.468Z,5.59
2023-04-02T09:34:37.027Z,5.68
2023-04-02T09:37:09.705Z,5.74
2023-04-02T09:39:38.187Z,5.83
2023-04-02T09:42:08.507Z,5.74
2023-04-02T09:44:37.103Z,5.60
2023-04-02T09:47:25.012Z,5.74
2023-04-02T09:49:53.347Z,6.53
2023-04-02T09:52:28.388Z,6.81
2023-04-02T09:55:21.897Z,7.34
2023-04-02T09:58:05.833Z,7.69
2023-04-02T10:00:34.425Z,8.13
2023-04-02T10:03:14.790Z,7.96
2023-04-02T10:05:44.041Z,7.58
2023-04-02T10:08:20.837Z,7.46
2023-04-02T10:10:54.806Z,7.48
2023-04-02T10:13:30.097Z,7.50
2023-04-02T10:16:04.054Z,7.67
2023-04-02T10:18:44.572Z,7.71
2023-04-02T10:21:18.441Z,7.56
2023-04-02T10:23:46.817Z,7.68
2023-04-02T10:26:46.825Z,7.23
2023-04-02T10:29:34.176Z,7.50
2023-04-02T10:32:12.520Z,7.99
2023-04-02T10:34:53.043Z,8.67
2023-04-02T10:38:09.689Z,9.05
2023-04-02T10:40:47.160Z,9.50
2023-04-02T10:44:16.666Z,9.99
2023-04-02T10:47:04.338Z,10.00
2023-04-02T10:49:42.968Z,10.11
2023-04-02T10:52:21.503Z,10.32
2023-04-02T10:54:52.798Z,10.76
2023-04-02T10:57:34.737Z,10.90
2023-04-02T11:00:20.218Z,10.41
2023-04-02T11:02:58.665Z,10.01
2023-04-02T11:05:43.384Z,10.22
2023-04-02T11:08:20.780Z,10.44
2023-04-02T11:10:55.858Z,10.79
2023-04-02T11:13:31.140Z,10.86
2023-04-02T11:15:59.666Z,10.97
2023-04-02T11:18:36.081Z,11.45
2023-04-02T11:21:28.495Z,11.63
2023-04-02T11:24:01.633Z,11.32
2023-04-02T11:26:41.265Z,10.98
2023-04-02T11:29:21.528Z,11.15
2023-04-02T11:32:11.697Z,11.35
2023-04-02T11:35:25.868Z,12.01
2023-04-02T11:37:56.862Z,12.14
2023-04-02T11:40:48.361Z,11.99
2023-04-02T11:44:00.294Z,12.80
2023-04-02T11:46:45.805Z,12.38
2023-04-02T11:49:56.882Z,12.80
2023-04-02T11:52:31.395Z,13.02
2023-04-02T11:55:17.524Z,12.43
2023-04-02T11:58:32.336Z,12.78
2023-04-02T12:01:30.112Z,12.75
2023-04-02T12:04:54.879Z,12.45
2023-04-02T12:07:52.397Z,13.15
2023-04-02T12:10:23.652Z,13.56
2023-04-02T12:12:52.058Z,13.99
2023-04-02T12:15:43.129Z,13.91
2023-04-02T12:18:21.532Z,13.77
2023-04-02T12:20:52.555Z,13.94
2023-04-02T12:23:24.466Z,13.30
2023-04-02T12:25:59.983Z,13.84
2023-04-02T12:28:29.120Z,13.66
2023-04-02T12:31:13.076Z,13.95
2023-04-02T12:33:42.915Z,14.55
2023-04-02T12:36:21.299Z,14.44
2023-04-02T12:38:52.341Z,14.45
2023-04-02T12:41:27.183Z,14.48
2023-04-02T12:44:00.410Z,14.29
2023-04-02T12:46:32.340Z,14.58
2023-04-02T12:49:06.783Z,14.80
2023-04-02T12:51:37.640Z,15.01
2023-04-02T12:54:06.318Z,14.70
2023-04-02T12:56:34.362Z,14.40
2023-04-02T12:59:02.400Z,13.49
2023-04-02T13:01:33.897Z,13.24
2023-04-02T13:04:05.036Z,13.48
2023-04-02T13:06:35.701Z,13.59
2023-04-02T13:09:07.507Z,13.49
2023-04-02T13:11:38.434Z,13.47
2023-04-02T13:14:16.755Z,13.51
2023-04-02T13:16:48.133Z,13.38
2023-04-02T13:19:30.934Z,13.63
2023-04-02T13:22:02.434Z,13.62
2023-04-02T13:24:33.331Z,13.25
2023-04-02T13:27:03.619Z,13.61
2023-04-02T13:29:33.891Z,14.00
2023-04-02T13:32:07.800Z,14.06
2023-04-02T13:34:35.911Z,14.38
2023-04-02T13:37:03.940Z,14.89
2023-04-02T13:39:31.939Z,15.13
2023-04-02T13:42:03.029Z,14.90
2023-04-02T13:44:34.399Z,14.42
2023-04-02T13:47:04.131Z,14.33
2023-04-02T13:49:32.443Z,13.56
2023-04-02T13:52:04.269Z,12.98
2023-04-02T13:54:41.170Z,12.91
2023-04-02T13:57:09.180Z,12.63
2023-04-02T13:59:37.215Z,12.69
2023-04-02T14:02:13.679Z,13.36
2023-04-02T14:04:49.269Z,13.51
2023-04-02T14:07:46.876Z,13.59
2023-04-02T14:10:32.697Z,13.75
2023-04-02T14:13:15.374Z,14.80
2023-04-02T14:16:01.624Z,14.58
2023-04-02T14:18:47.579Z,13.55
2023-04-02T14:21:27.189Z,13.00
2023-04-02T14:24:15.538Z,13.17
2023-04-02T14:26:57.862Z,12.66
2023-04-02T14:29:35.431Z,12.75
2023-04-02T14:32:10.619Z,13.04
2023-04-02T14:34:54.934Z,13.01
2023-04-02T14:37:37.890Z,12.86
2023-04-02T14:40:21.884Z,13.56
2023-04-02T14:43:00.623Z,13.72
2023-04-02T14:45:49.789Z,13.61
2023-04-02T14:48:32.950Z,14.00
2023-04-02T14:51:10.269Z,14.13
2023-04-02T14:53:54.317Z,13.96
2023-04-02T14:56:24.969Z,14.06
2023-04-02T14:59:12.175Z,14.07
2023-04-02T15:01:45.039Z,14.08
2023-04-02T15:04:19.351Z,14.18
2023-04-02T15:06:55.506Z,14.24
2023-04-02T15:09:30.276Z,13.95
2023-04-02T15:12:07.499Z,14.03
2023-04-02T15:14:40.942Z,14.00
2023-04-02T15:17:11.922Z,13.80
2023-04-02T15:19:40.337Z,13.68
2023-04-02T15:22:27.355Z,13.95
2023-04-02T15:25:16.633Z,14.32
2023-04-02T15:28:01.937Z,14.27
2023-04-02T15:30:35.708Z,14.44
2023-04-02T15:33:38.832Z,14.44
2023-04-02T15:36:40.387Z,14.49
2023-04-02T15:40:03.174Z,14.53
2023-04-02T15:42:39.429Z,14.20
2023-04-02T15:45:30.439Z,14.12
2023-04-02T15:48:18.746Z,14.24
2023-04-02T15:51:03.714Z,14.02
2023-04-02T15:53:48.072Z,13.65
2023-04-02T15:56:46.092Z,13.38
2023-04-02T15:59:40.904Z,13.38
2023-04-02T16:02:39.445Z,13.34
2023-04-02T16:05:27.249Z,13.16
2023-04-02T16:08:27.349Z,13.15
2023-04-02T16:10:55.774Z,13.02
2023-04-02T16:13:33.999Z,12.93
2023-04-02T16:16:07.318Z,12.66
2023-04-02T16:18:49.826Z,12.52
2023-04-02T16:21:35.540Z,12.75
2023-04-02T16:24:12.837Z,12.86
2023-04-02T16:27:00.040Z,12.90
2023-04-02T16:29:55.896Z,13.10
2023-04-02T16:32:54.070Z,13.00
2023-04-02T16:35:47.123Z,13.17
2023-04-02T16:38:43.520Z,13.43
2023-04-02T16:41:27.214Z,13.65
2023-04-02T16:44:15.850Z,13.65
2023-04-02T16:47:03.423Z,13.55
2023-04-02T16:49:43.379Z,13.44
2023-04-02T16:52:42.102Z,13.15
2023-04-02T16:55:46.817Z,12.75
2023-04-02T16:58:37.773Z,12.20
2023-04-02T17:01:22.785Z,11.89
2023-04-02T17:04:14.766Z,11.81
2023-04-02T17:07:01.690Z,11.87
2023-04-02T17:09:44.610Z,11.92
2023-04-02T17:12:21.008Z,11.73
2023-04-02T17:14:57.480Z,11.67
2023-04-02T17:17:27.663Z,11.39
2023-04-02T17:20:09.842Z,11.05
2023-04-02T17:22:37.992Z,10.95
2023-04-02T17:25:23.287Z,10.91
2023-04-02T17:27:58.046Z,10.88
2023-04-02T17:30:41.117Z,10.83
2023-04-02T17:33:13.661Z,10.68
2023-04-02T17:36:05.606Z,10.61
2023-04-02T17:38:50.929Z,10.51
2023-04-02T17:41:28.984Z,10.42
2023-04-02T17:44:08.866Z,10.35
2023-04-02T17:46:47.717Z,10.37
2023-04-02T17:49:25.069Z,10.14
2023-04-02T17:52:03.350Z,10.09
2023-04-02T17:54:46.682Z,10.00
2023-04-02T17:57:34.481Z,9.89
2023-04-02T18:00:22.883Z,9.75
2023-04-02T18:03:25.611Z,9.58
2023-04-02T18:06:03.631Z,9.53
2023-04-02T18:08:49.494Z,9.44
2023-04-02T18:11:31.977Z,9.40
2023-04-02T18:14:09.150Z,9.36
2023-04-02T18:16:49.798Z,9.30
2023-04-02T18:19:23.864Z,9.23
2023-04-02T18:22:02.196Z,9.16
2023-04-02T18:25:06.742Z,9.06
2023-04-02T18:27:57.946Z,8.94
2023-04-02T18:30:36.292Z,9.06
2023-04-02T18:33:26.703Z,9.08
2023-04-02T18:36:06.493Z,9.19
2023-04-02T18:38:47.598Z,9.30
2023-04-02T18:41:40.319Z,9.29
2023-04-02T18:44:25.601Z,9.23
2023-04-02T18:46:59.530Z,9.30
2023-04-02T18:49:36.167Z,9.32
2023-04-02T18:52:12.548Z,9.39
2023-04-02T18:54:46.443Z,9.34
2023-04-02T18:57:22.853Z,9.47
2023-04-02T19:00:00.284Z,9.50
2023-04-02T19:02:41.293Z,9.56
2023-04-02T19:05:23.632Z,9.66
2023-04-02T19:08:02.526Z,9.74
2023-04-02T19:10:36.758Z,9.78
2023-04-02T19:13:14.341Z,9.81
2023-04-02T19:16:07.588Z,9.85
2023-04-02T19:18:51.709Z,9.93
2023-04-02T19:21:31.594Z,9.78
2023-04-02T19:24:22.190Z,9.70
2023-04-02T19:26:59.022Z,9.70
2023-04-02T19:29:49.374Z,9.61
2023-04-02T19:32:33.549Z,9.56
2023-04-02T19:35:16.146Z,9.49
2023-04-02T19:37:57.836Z,9.39
2023-04-02T19:40:39.744Z,9.40
2023-04-02T19:43:10.715Z,9.42
2023-04-02T19:45:43.478Z,9.51
2023-04-02T19:48:17.703Z,9.52
2023-04-02T19:50:46.931Z,9.58
2023-04-02T19:53:15.926Z,9.45
2023-04-02T19:55:45.558Z,9.33
2023-04-02T19:58:25.933Z,9.37
2023-04-02T20:00:55.459Z,9.40
2023-04-02T20:03:23.936Z,9.32
2023-04-02T20:05:52.379Z,9.29
2023-04-02T20:08:20.882Z,9.39
2023-04-02T20:10:49.242Z,9.40
2023-04-02T20:13:17.180Z,9.40
2023-04-02T20:15:45.131Z,9.44
2023-04-02T20:18:14.409Z,9.39
2023-04-02T20:20:46.086Z,9.28
2023-04-02T20:23:15.704Z,9.31
2023-04-02T20:25:46.366Z,9.18
2023-04-02T20:28:14.469Z,9.24
2023-04-02T20:30:42.337Z,9.24
2023-04-02T20:33:10.502Z,9.18
2023-04-02T20:35:40.062Z,9.17
2023-04-02T20:38:08.928Z,9.10
2023-04-02T20:40:40.517Z,9.05
2023-04-02T20:43:09.549Z,9.03
2023-04-02T20:45:37.912Z,9.05
2023-04-02T20:48:07.797Z,9.01
2023-04-02T20:50:36.224Z,9.01
2023-04-02T20:53:08.117Z,8.96
2023-04-02T20:55:37.913Z,8.98
2023-04-02T20:58:05.952Z,8.92
2023-04-02T21:00:33.898Z,8.91
2023-04-02T21:03:02.162Z,8.84
2023-04-02T21:05:33.283Z,8.75
2023-04-02T21:08:01.311Z,8.78
2023-04-02T21:10:30.614Z,8.74
2023-04-02T21:12:58.366Z,8.67
2023-04-02T21:15:26.292Z,8.55
2023-04-02T21:17:54.126Z,8.44
2023-04-02T21:20:22.002Z,8.40
2023-04-02T21:22:52.227Z,8.30
2023-04-02T21:25:20.206Z,8.21
2023-04-02T21:27:49.689Z,8.09
2023-04-02T21:30:20.499Z,7.99
2023-04-02T21:32:53.597Z,7.92
2023-04-02T21:35:21.934Z,7.76
2023-04-02T21:37:53.140Z,7.69
2023-04-02T21:40:24.148Z,7.58
2023-04-02T21:42:55.954Z,7.49
2023-04-02T21:45:23.882Z,7.43
2023-04-02T21:47:51.770Z,7.42
2023-04-02T21:50:19.646Z,7.34
2023-04-02T21:52:47.627Z,7.25
2023-04-02T21:55:18.459Z,7.14
2023-04-02T21:57:46.421Z,7.07
2023-04-02T22:00:17.335Z,6.95
2023-04-02T22:02:45.428Z,6.94
2023-04-02T22:05:13.592Z,6.86
2023-04-02T22:07:41.470Z,6.79
2023-04-02T22:10:10.533Z,6.75
2023-04-02T22:12:38.433Z,6.69
2023-04-02T22:15:07.360Z,6.66
2023-04-02T22:17:36.600Z,6.60
2023-04-02T22:20:05.545Z,6.48
2023-04-02T22:22:33.358Z,6.43
2023-04-02T22:25:01.701Z,6.41
2023-04-02T22:27:29.636Z,6.34
2023-04-02T22:29:57.735Z,6.31
2023-04-02T22:32:26.104Z,6.32
2023-04-02T22:34:58.588Z,6.33
2023-04-02T22:37:26.654Z,6.24
2023-04-02T22:39:55.118Z,6.25
2023-04-02T22:42:23.132Z,6.18
2023-04-02T22:44:50.982Z,6.13
2023-04-02T22:47:18.831Z,6.05
2023-04-02T22:49:46.772Z,5.94
2023-04-02T22:52:16.203Z,5.94
2023-04-02T22:54:44.053Z,5.91
2023-04-02T22:57:12.856Z,5.92
2023-04-02T22:59:40.857Z,5.86
2023-04-02T23:02:08.747Z,5.83
2023-04-02T23:04:36.787Z,5.79
2023-04-02T23:07:04.710Z,5.72
2023-04-02T23:09:33.883Z,5.66
2023-04-02T23:12:01.660Z,5.63
2023-04-02T23:14:29.616Z,5.58
2023-04-02T23:16:57.688Z,5.54
2023-04-02T23:19:25.657Z,5.49
2023-04-02T23:21:53.517Z,5.41
2023-04-02T23:24:21.492Z,5.45
2023-04-02T23:26:50.893Z,5.47
2023-04-02T23:29:18.939Z,5.43
2023-04-02T23:31:47.047Z,5.46
2023-04-02T23:34:15.347Z,5.43
2023-04-02T23:36:43.320Z,5.34
2023-04-02T23:39:13.658Z,5.31
2023-04-02T23:41:42.963Z,5.29
2023-04-02T23:44:12.390Z,5.23
2023-04-02T23:46:40.180Z,5.23
2023-04-02T23:49:12.505Z,5.22
2023-04-02T23:51:40.844Z,5.15
2023-04-02T23:54:10.661Z,5.08
2023-04-02T23:56:38.621Z,5.06
2023-04-02T23:59:06.930Z,5.12
